sensor_id;sensor_type;location;lat;lon;timestamp;pressure;altitude;pressure_sealevel;temperature;humidity
8039;BME280;4062;49.844;8.120;2023-07-13T00:01:10;99281.94;;;19.83;60.96
8039;BME280;4062;49.844;8.120;2023-07-13T00:03:16;99289.91;;;19.85;61.14
8039;BME280;4062;49.844;8.120;2023-07-13T00:05:18;99285.47;;;19.84;60.99
8039;BME280;4062;49.844;8.120;2023-07-13T00:07:19;99280.13;;;19.84;61.38
8039;BME280;4062;49.844;8.120;2023-07-13T00:09:21;99281.00;;;19.84;61.27
8039;BME280;4062;49.844;8.120;2023-07-13T00:11:23;99281.94;;;19.83;61.11
8039;BME280;4062;49.844;8.120;2023-07-13T00:13:24;99283.69;;;19.84;61.33
8039;BME280;4062;49.844;8.120;2023-07-13T00:15:27;99284.56;;;19.85;61.38
8039;BME280;4062;49.844;8.120;2023-07-13T00:17:29;99281.88;;;19.85;61.27
8039;BME280;4062;49.844;8.120;2023-07-13T00:19:30;99289.03;;;19.84;61.13
8039;BME280;4062;49.844;8.120;2023-07-13T00:21:31;99296.22;;;19.84;61.03
8039;BME280;4062;49.844;8.120;2023-07-13T00:23:35;99289.03;;;19.84;61.25
8039;BME280;4062;49.844;8.120;2023-07-13T00:25:36;99290.84;;;19.84;61.34
8039;BME280;4062;49.844;8.120;2023-07-13T00:27:38;99294.41;;;19.84;61.11
8039;BME280;4062;49.844;8.120;2023-07-13T00:29:39;99297.09;;;19.84;61.07
8039;BME280;4062;49.844;8.120;2023-07-13T00:31:41;99294.41;;;19.84;61.19
8039;BME280;4062;49.844;8.120;2023-07-13T00:33:44;99294.41;;;19.84;61.45
8039;BME280;4062;49.844;8.120;2023-07-13T00:35:45;99299.75;;;19.84;61.24
8039;BME280;4062;49.844;8.120;2023-07-13T00:37:47;99305.13;;;19.84;61.15
8039;BME280;4062;49.844;8.120;2023-07-13T00:39:48;99301.56;;;19.84;61.28
8039;BME280;4062;49.844;8.120;2023-07-13T00:41:50;99308.69;;;19.85;61.38
8039;BME280;4062;49.844;8.120;2023-07-13T00:43:53;99309.59;;;19.84;61.24
8039;BME280;4062;49.844;8.120;2023-07-13T00:46:11;99308.69;;;19.85;61.18
8039;BME280;4062;49.844;8.120;2023-07-13T00:48:16;99318.53;;;19.84;61.20
8039;BME280;4062;49.844;8.120;2023-07-13T00:50:21;99315.84;;;19.84;61.38
8039;BME280;4062;49.844;8.120;2023-07-13T00:52:24;99310.50;;;19.84;61.37
8039;BME280;4062;49.844;8.120;2023-07-13T00:54:36;99313.16;;;19.84;61.19
8039;BME280;4062;49.844;8.120;2023-07-13T00:56:38;99315.84;;;19.84;61.13
8039;BME280;4062;49.844;8.120;2023-07-13T00:58:40;99313.16;;;19.84;61.11
8039;BME280;4062;49.844;8.120;2023-07-13T01:00:45;99317.66;;;19.84;61.00
8039;BME280;4062;49.844;8.120;2023-07-13T01:02:49;99321.22;;;19.84;61.39
8039;BME280;4062;49.844;8.120;2023-07-13T01:04:52;99316.81;;;19.83;61.39
8039;BME280;4062;49.844;8.120;2023-07-13T01:06:57;99308.75;;;19.83;61.14
8039;BME280;4062;49.844;8.120;2023-07-13T01:08:59;99315.84;;;19.84;61.32
8039;BME280;4062;49.844;8.120;2023-07-13T01:11:02;99313.28;;;19.83;61.15
8039;BME280;4062;49.844;8.120;2023-07-13T01:13:03;99314.97;;;19.84;61.29
8039;BME280;4062;49.844;8.120;2023-07-13T01:15:05;99323.00;;;19.84;61.09
8039;BME280;4062;49.844;8.120;2023-07-13T01:17:10;99315.84;;;19.84;61.43
8039;BME280;4062;49.844;8.120;2023-07-13T01:19:41;99320.34;;;19.84;61.05
8039;BME280;4062;49.844;8.120;2023-07-13T01:21:43;99319.50;;;19.83;61.09
8039;BME280;4062;49.844;8.120;2023-07-13T01:23:45;99318.63;;;19.83;61.37
8039;BME280;4062;49.844;8.120;2023-07-13T01:25:49;99318.53;;;19.84;61.44
8039;BME280;4062;49.844;8.120;2023-07-13T01:27:51;99318.53;;;19.84;61.46
8039;BME280;4062;49.844;8.120;2023-07-13T01:29:53;99320.34;;;19.84;61.38
8039;BME280;4062;49.844;8.120;2023-07-13T01:32:04;99325.69;;;19.84;61.33
8039;BME280;4062;49.844;8.120;2023-07-13T01:34:05;99325.69;;;19.84;61.22
8039;BME280;4062;49.844;8.120;2023-07-13T01:36:10;99330.13;;;19.85;61.45
8039;BME280;4062;49.844;8.120;2023-07-13T01:38:15;99329.25;;;19.84;61.24
8039;BME280;4062;49.844;8.120;2023-07-13T01:40:17;99326.56;;;19.84;61.37
8039;BME280;4062;49.844;8.120;2023-07-13T01:42:18;99323.00;;;19.84;61.35
8039;BME280;4062;49.844;8.120;2023-07-13T01:44:19;99328.38;;;19.84;61.40
8039;BME280;4062;49.844;8.120;2023-07-13T01:46:21;99329.25;;;19.84;61.33
8039;BME280;4062;49.844;8.120;2023-07-13T01:48:22;99342.66;;;19.84;61.18
8039;BME280;4062;49.844;8.120;2023-07-13T01:50:24;99324.84;;;19.83;61.32
8039;BME280;4062;49.844;8.120;2023-07-13T01:52:27;99317.66;;;19.84;61.01
8039;BME280;4062;49.844;8.120;2023-07-13T01:54:29;99323.00;;;19.84;61.18
8039;BME280;4062;49.844;8.120;2023-07-13T01:56:30;99326.56;;;19.84;61.13
8039;BME280;4062;49.844;8.120;2023-07-13T01:58:31;99323.91;;;19.84;61.12
8039;BME280;4062;49.844;8.120;2023-07-13T02:00:33;99327.53;;;19.83;61.15
8039;BME280;4062;49.844;8.120;2023-07-13T02:02:38;99328.38;;;19.84;61.12
8039;BME280;4062;49.844;8.120;2023-07-13T02:04:41;99328.38;;;19.84;61.24
8039;BME280;4062;49.844;8.120;2023-07-13T02:06:42;99337.31;;;19.84;61.04
8039;BME280;4062;49.844;8.120;2023-07-13T02:08:43;99324.84;;;19.83;61.25
8039;BME280;4062;49.844;8.120;2023-07-13T02:10:47;99328.38;;;19.84;61.40
8039;BME280;4062;49.844;8.120;2023-07-13T02:12:52;99326.69;;;19.83;61.33
8039;BME280;4062;49.844;8.120;2023-07-13T02:14:53;99326.69;;;19.83;61.23
8039;BME280;4062;49.844;8.120;2023-07-13T02:16:57;99322.16;;;19.83;61.11
8039;BME280;4062;49.844;8.120;2023-07-13T02:18:59;99332.81;;;19.85;61.40
8039;BME280;4062;49.844;8.120;2023-07-13T02:21:05;99326.69;;;19.83;61.22
8039;BME280;4062;49.844;8.120;2023-07-13T02:23:11;99334.63;;;19.84;61.17
8039;BME280;4062;49.844;8.120;2023-07-13T02:25:12;99323.91;;;19.84;61.32
8039;BME280;4062;49.844;8.120;2023-07-13T02:27:13;99324.84;;;19.83;61.06
8039;BME280;4062;49.844;8.120;2023-07-13T02:29:15;99324.84;;;19.83;61.47
8039;BME280;4062;49.844;8.120;2023-07-13T02:31:17;99321.31;;;19.83;61.40
8039;BME280;4062;49.844;8.120;2023-07-13T02:33:21;99323.00;;;19.84;61.14
8039;BME280;4062;49.844;8.120;2023-07-13T02:35:23;99323.00;;;19.84;61.41
8039;BME280;4062;49.844;8.120;2023-07-13T02:37:25;99322.16;;;19.83;61.17
8039;BME280;4062;49.844;8.120;2023-07-13T02:39:26;99323.00;;;19.84;61.25
8039;BME280;4062;49.844;8.120;2023-07-13T02:41:27;99322.16;;;19.83;61.13
8039;BME280;4062;49.844;8.120;2023-07-13T02:43:29;99334.63;;;19.84;61.14
8039;BME280;4062;49.844;8.120;2023-07-13T02:45:34;99328.38;;;19.84;61.45
8039;BME280;4062;49.844;8.120;2023-07-13T02:47:35;99318.63;;;19.83;61.27
8039;BME280;4062;49.844;8.120;2023-07-13T02:49:40;99325.69;;;19.84;61.21
8039;BME280;4062;49.844;8.120;2023-07-13T02:51:45;99323.00;;;19.84;61.06
8039;BME280;4062;49.844;8.120;2023-07-13T02:53:46;99323.00;;;19.84;60.99
8039;BME280;4062;49.844;8.120;2023-07-13T02:55:48;99324.84;;;19.83;61.31
8039;BME280;4062;49.844;8.120;2023-07-13T02:57:49;99329.25;;;19.84;61.43
8039;BME280;4062;49.844;8.120;2023-07-13T02:59:52;99324.84;;;19.83;61.40
8039;BME280;4062;49.844;8.120;2023-07-13T03:01:54;99321.22;;;19.84;61.50
8039;BME280;4062;49.844;8.120;2023-07-13T03:03:55;99328.38;;;19.84;61.34
8039;BME280;4062;49.844;8.120;2023-07-13T03:06:01;99327.53;;;19.83;61.13
8039;BME280;4062;49.844;8.120;2023-07-13T03:08:12;99335.56;;;19.83;61.37
8039;BME280;4062;49.844;8.120;2023-07-13T03:10:16;99341.78;;;19.84;61.40
8039;BME280;4062;49.844;8.120;2023-07-13T03:12:26;99332.91;;;19.83;61.44
8039;BME280;4062;49.844;8.120;2023-07-13T03:14:28;99338.25;;;19.83;61.11
8039;BME280;4062;49.844;8.120;2023-07-13T03:16:29;99340.94;;;19.83;61.34
8039;BME280;4062;49.844;8.120;2023-07-13T03:18:31;99340.09;;;19.83;61.15
8039;BME280;4062;49.844;8.120;2023-07-13T03:20:37;99344.47;;;19.84;61.38
8039;BME280;4062;49.844;8.120;2023-07-13T03:22:42;99345.44;;;19.83;61.22
8039;BME280;4062;49.844;8.120;2023-07-13T03:24:45;99343.63;;;19.83;61.35
8039;BME280;4062;49.844;8.120;2023-07-13T03:26:47;99345.44;;;19.83;61.19
8039;BME280;4062;49.844;8.120;2023-07-13T03:28:49;99343.63;;;19.83;61.37
8039;BME280;4062;49.844;8.120;2023-07-13T03:31:09;99346.28;;;19.83;61.35
8039;BME280;4062;49.844;8.120;2023-07-13T03:33:10;99342.78;;;19.83;61.23
8039;BME280;4062;49.844;8.120;2023-07-13T03:35:12;99349.81;;;19.84;61.26
8039;BME280;4062;49.844;8.120;2023-07-13T03:37:13;99351.66;;;19.83;61.20
8039;BME280;4062;49.844;8.120;2023-07-13T03:39:15;99354.34;;;19.83;61.26
8039;BME280;4062;49.844;8.120;2023-07-13T03:41:29;99357.03;;;19.83;61.44
8039;BME280;4062;49.844;8.120;2023-07-13T03:43:32;99360.66;;;19.82;61.33
8039;BME280;4062;49.844;8.120;2023-07-13T03:45:33;99362.38;;;19.83;61.38
8039;BME280;4062;49.844;8.120;2023-07-13T03:47:34;99375.78;;;19.83;61.21
8039;BME280;4062;49.844;8.120;2023-07-13T03:49:39;99381.16;;;19.83;61.14
8039;BME280;4062;49.844;8.120;2023-07-13T03:51:40;99371.28;;;19.84;61.28
8039;BME280;4062;49.844;8.120;2023-07-13T03:53:42;99372.25;;;19.83;61.31
8039;BME280;4062;49.844;8.120;2023-07-13T03:55:45;99374.94;;;19.83;61.26
8039;BME280;4062;49.844;8.120;2023-07-13T03:57:46;99378.47;;;19.83;61.20
8039;BME280;4062;49.844;8.120;2023-07-13T03:59:52;99380.31;;;19.83;61.20
8039;BME280;4062;49.844;8.120;2023-07-13T04:01:53;99380.31;;;19.83;61.38
8039;BME280;4062;49.844;8.120;2023-07-13T04:03:56;99384.69;;;19.84;61.45
8039;BME280;4062;49.844;8.120;2023-07-13T04:06:00;99382.09;;;19.82;61.32
8039;BME280;4062;49.844;8.120;2023-07-13T04:08:02;99382.97;;;19.83;61.34
8039;BME280;4062;49.844;8.120;2023-07-13T04:10:06;99375.78;;;19.83;61.20
8039;BME280;4062;49.844;8.120;2023-07-13T04:12:08;99382.09;;;19.82;61.34
8039;BME280;4062;49.844;8.120;2023-07-13T04:14:10;99381.16;;;19.83;61.07
8039;BME280;4062;49.844;8.120;2023-07-13T04:16:12;99389.19;;;19.83;61.35
8039;BME280;4062;49.844;8.120;2023-07-13T04:18:14;99381.16;;;19.83;61.45
8039;BME280;4062;49.844;8.120;2023-07-13T04:20:15;99391.88;;;19.83;61.20
8039;BME280;4062;49.844;8.120;2023-07-13T04:22:16;99389.19;;;19.83;61.27
8039;BME280;4062;49.844;8.120;2023-07-13T04:24:17;99377.63;;;19.83;61.38
8039;BME280;4062;49.844;8.120;2023-07-13T04:26:22;99385.66;;;19.83;61.40
8039;BME280;4062;49.844;8.120;2023-07-13T04:28:25;99385.66;;;19.83;61.32
8039;BME280;4062;49.844;8.120;2023-07-13T04:30:26;99385.66;;;19.83;61.21
8039;BME280;4062;49.844;8.120;2023-07-13T04:32:30;99390.03;;;19.84;61.33
8039;BME280;4062;49.844;8.120;2023-07-13T04:34:31;99382.97;;;19.83;61.21
8039;BME280;4062;49.844;8.120;2023-07-13T04:36:33;99375.91;;;19.82;61.35
8039;BME280;4062;49.844;8.120;2023-07-13T04:38:34;99379.31;;;19.84;61.21
8039;BME280;4062;49.844;8.120;2023-07-13T04:40:36;99375.78;;;19.83;61.47
8039;BME280;4062;49.844;8.120;2023-07-13T04:42:38;99377.63;;;19.83;61.19
8039;BME280;4062;49.844;8.120;2023-07-13T04:44:40;99382.00;;;19.84;61.11
8039;BME280;4062;49.844;8.120;2023-07-13T04:46:41;99387.34;;;19.84;61.29
8039;BME280;4062;49.844;8.120;2023-07-13T04:48:42;99385.66;;;19.83;61.48
8039;BME280;4062;49.844;8.120;2023-07-13T04:50:43;99385.66;;;19.83;61.47
8039;BME280;4062;49.844;8.120;2023-07-13T04:52:45;99386.50;;;19.83;61.43
8039;BME280;4062;49.844;8.120;2023-07-13T04:54:46;99390.03;;;19.84;61.43
8039;BME280;4062;49.844;8.120;2023-07-13T04:56:47;99386.63;;;19.82;61.44
8039;BME280;4062;49.844;8.120;2023-07-13T04:58:49;99383.84;;;19.83;61.24
8039;BME280;4062;49.844;8.120;2023-07-13T05:00:50;99389.19;;;19.83;61.49
8039;BME280;4062;49.844;8.120;2023-07-13T05:02:51;99397.25;;;19.83;61.44
8039;BME280;4062;49.844;8.120;2023-07-13T05:04:52;99395.41;;;19.84;61.21
8039;BME280;4062;49.844;8.120;2023-07-13T05:06:54;99393.72;;;19.83;61.26
8039;BME280;4062;49.844;8.120;2023-07-13T05:08:55;99398.09;;;19.84;61.28
8039;BME280;4062;49.844;8.120;2023-07-13T05:10:58;99393.72;;;19.83;61.38
8039;BME280;4062;49.844;8.120;2023-07-13T05:13:00;99395.41;;;19.84;61.07
8039;BME280;4062;49.844;8.120;2023-07-13T05:15:02;99404.44;;;19.83;61.39
8039;BME280;4062;49.844;8.120;2023-07-13T05:17:04;99400.75;;;19.84;61.13
8039;BME280;4062;49.844;8.120;2023-07-13T05:19:05;99408.81;;;19.84;61.28
8039;BME280;4062;49.844;8.120;2023-07-13T05:21:09;99411.50;;;19.84;61.00
8039;BME280;4062;49.844;8.120;2023-07-13T05:23:14;99412.47;;;19.83;61.19
8039;BME280;4062;49.844;8.120;2023-07-13T05:25:15;99414.28;;;19.82;61.44
8039;BME280;4062;49.844;8.120;2023-07-13T05:27:17;99413.31;;;19.83;61.52
8039;BME280;4062;49.844;8.120;2023-07-13T05:29:19;99413.31;;;19.83;61.20
8039;BME280;4062;49.844;8.120;2023-07-13T05:31:20;99414.16;;;19.84;61.44
8039;BME280;4062;49.844;8.120;2023-07-13T05:33:22;99418.69;;;19.83;61.25
8039;BME280;4062;49.844;8.120;2023-07-13T05:35:23;99421.38;;;19.83;61.27
8039;BME280;4062;49.844;8.120;2023-07-13T05:37:24;99410.63;;;19.83;61.29
8039;BME280;4062;49.844;8.120;2023-07-13T05:39:26;99418.69;;;19.83;61.19
8039;BME280;4062;49.844;8.120;2023-07-13T05:41:28;99411.50;;;19.84;61.26
8039;BME280;4062;49.844;8.120;2023-07-13T05:43:29;99412.47;;;19.83;61.40
8039;BME280;4062;49.844;8.120;2023-07-13T05:45:30;99416.84;;;19.84;61.06
8039;BME280;4062;49.844;8.120;2023-07-13T05:47:32;99417.84;;;19.83;61.34
8039;BME280;4062;49.844;8.120;2023-07-13T05:49:33;99412.47;;;19.83;61.07
8039;BME280;4062;49.844;8.120;2023-07-13T05:51:34;99412.47;;;19.83;61.39
8039;BME280;4062;49.844;8.120;2023-07-13T05:53:35;99415.03;;;19.84;60.96
8039;BME280;4062;49.844;8.120;2023-07-13T05:55:44;99416.94;;;19.82;61.26
8039;BME280;4062;49.844;8.120;2023-07-13T05:57:54;99429.41;;;19.83;61.12
8039;BME280;4062;49.844;8.120;2023-07-13T05:59:55;99426.72;;;19.83;61.21
8039;BME280;4062;49.844;8.120;2023-07-13T06:01:56;99424.91;;;19.84;61.22
8039;BME280;4062;49.844;8.120;2023-07-13T06:03:58;99416.84;;;19.84;61.07
8039;BME280;4062;49.844;8.120;2023-07-13T06:06:04;99423.09;;;19.84;61.12
8039;BME280;4062;49.844;8.120;2023-07-13T06:08:06;99427.56;;;19.84;61.28
8039;BME280;4062;49.844;8.120;2023-07-13T06:10:08;99425.78;;;19.84;61.08
8039;BME280;4062;49.844;8.120;2023-07-13T06:12:10;99432.94;;;19.84;61.31
8039;BME280;4062;49.844;8.120;2023-07-13T06:14:11;99431.13;;;19.84;61.14
8039;BME280;4062;49.844;8.120;2023-07-13T06:16:14;99432.94;;;19.84;61.25
8039;BME280;4062;49.844;8.120;2023-07-13T06:18:16;99430.25;;;19.84;61.02
8039;BME280;4062;49.844;8.120;2023-07-13T06:20:17;99441.84;;;19.84;61.14
8039;BME280;4062;49.844;8.120;2023-07-13T06:22:21;99436.50;;;19.84;61.27
8039;BME280;4062;49.844;8.120;2023-07-13T06:24:22;99439.19;;;19.84;61.26
8039;BME280;4062;49.844;8.120;2023-07-13T06:26:24;99437.38;;;19.85;61.24
8039;BME280;4062;49.844;8.120;2023-07-13T06:28:25;99441.84;;;19.84;61.40
8039;BME280;4062;49.844;8.120;2023-07-13T06:30:26;99440.06;;;19.85;61.08
8039;BME280;4062;49.844;8.120;2023-07-13T06:32:28;99443.63;;;19.86;61.26
8039;BME280;4062;49.844;8.120;2023-07-13T06:34:29;99441.78;;;19.86;61.07
8039;BME280;4062;49.844;8.120;2023-07-13T06:36:30;99449.81;;;19.86;61.22
8039;BME280;4062;49.844;8.120;2023-07-13T06:38:32;99433.75;;;19.86;61.23
8039;BME280;4062;49.844;8.120;2023-07-13T06:40:33;99442.66;;;19.87;61.25
8039;BME280;4062;49.844;8.120;2023-07-13T06:42:35;99447.06;;;19.88;61.23
8039;BME280;4062;49.844;8.120;2023-07-13T06:44:36;99447.91;;;19.88;61.08
8039;BME280;4062;49.844;8.120;2023-07-13T06:46:37;99441.72;;;19.88;61.08
8039;BME280;4062;49.844;8.120;2023-07-13T06:48:39;99452.34;;;19.89;61.10
8039;BME280;4062;49.844;8.120;2023-07-13T06:50:43;99446.00;;;19.90;61.14
8039;BME280;4062;49.844;8.120;2023-07-13T06:52:44;99444.19;;;19.91;61.15
8039;BME280;4062;49.844;8.120;2023-07-13T06:54:49;99447.63;;;19.93;61.20
8039;BME280;4062;49.844;8.120;2023-07-13T06:56:50;99449.47;;;19.92;61.03
8039;BME280;4062;49.844;8.120;2023-07-13T06:59:02;99447.63;;;19.93;60.82
8039;BME280;4062;49.844;8.120;2023-07-13T07:01:07;99445.81;;;19.93;61.02
8039;BME280;4062;49.844;8.120;2023-07-13T07:03:09;99448.41;;;19.95;61.06
8039;BME280;4062;49.844;8.120;2023-07-13T07:05:10;99455.50;;;19.96;60.77
8039;BME280;4062;49.844;8.120;2023-07-13T07:07:12;99446.56;;;19.95;61.08
8039;BME280;4062;49.844;8.120;2023-07-13T07:09:13;99457.22;;;19.97;60.97
8039;BME280;4062;49.844;8.120;2023-07-13T07:11:24;99460.75;;;19.97;60.84
8039;BME280;4062;49.844;8.120;2023-07-13T07:13:26;99460.75;;;19.97;60.96
8039;BME280;4062;49.844;8.120;2023-07-13T07:15:29;99462.50;;;19.98;60.86
8039;BME280;4062;49.844;8.120;2023-07-13T07:17:30;99463.34;;;19.99;60.72
8039;BME280;4062;49.844;8.120;2023-07-13T07:19:32;99465.06;;;20.00;60.75
8039;BME280;4062;49.844;8.120;2023-07-13T07:21:33;99468.63;;;20.01;60.65
8039;BME280;4062;49.844;8.120;2023-07-13T07:23:35;99472.25;;;19.99;60.78
8039;BME280;4062;49.844;8.120;2023-07-13T07:25:37;99467.75;;;20.00;60.56
8039;BME280;4062;49.844;8.120;2023-07-13T07:27:43;99473.09;;;20.00;60.79
8039;BME280;4062;49.844;8.120;2023-07-13T07:29:45;99474.84;;;20.01;60.70
8039;BME280;4062;49.844;8.120;2023-07-13T07:31:49;99468.63;;;20.01;60.82
8039;BME280;4062;49.844;8.120;2023-07-13T07:33:50;99475.78;;;20.00;60.73
8039;BME280;4062;49.844;8.120;2023-07-13T07:35:52;99468.69;;;19.99;60.66
8039;BME280;4062;49.844;8.120;2023-07-13T07:37:53;99466.91;;;19.99;60.77
8039;BME280;4062;49.844;8.120;2023-07-13T07:39:55;99479.34;;;20.01;60.74
8039;BME280;4062;49.844;8.120;2023-07-13T07:41:56;99469.56;;;19.99;60.88
8039;BME280;4062;49.844;8.120;2023-07-13T07:43:58;99476.75;;;19.99;60.98
8039;BME280;4062;49.844;8.120;2023-07-13T07:45:59;99472.25;;;19.99;60.85
8039;BME280;4062;49.844;8.120;2023-07-13T07:48:01;99475.78;;;20.00;60.59
8039;BME280;4062;49.844;8.120;2023-07-13T07:50:02;99472.25;;;19.99;60.58
8039;BME280;4062;49.844;8.120;2023-07-13T07:52:05;99473.97;;;20.01;60.63
8039;BME280;4062;49.844;8.120;2023-07-13T07:54:06;99474.94;;;19.99;60.66
8039;BME280;4062;49.844;8.120;2023-07-13T07:56:08;99476.66;;;20.01;60.95
8039;BME280;4062;49.844;8.120;2023-07-13T07:58:12;99479.34;;;20.01;60.88
8039;BME280;4062;49.844;8.120;2023-07-13T08:00:15;99479.34;;;20.01;60.64
8039;BME280;4062;49.844;8.120;2023-07-13T08:02:17;99480.19;;;20.01;60.67
8039;BME280;4062;49.844;8.120;2023-07-13T08:04:19;99479.25;;;20.02;60.67
8039;BME280;4062;49.844;8.120;2023-07-13T08:06:21;99477.41;;;20.03;60.92
8039;BME280;4062;49.844;8.120;2023-07-13T08:08:23;99492.53;;;20.04;60.57
8039;BME280;4062;49.844;8.120;2023-07-13T08:10:27;99480.97;;;20.03;60.64
8039;BME280;4062;49.844;8.120;2023-07-13T08:12:28;99483.66;;;20.03;60.61
8039;BME280;4062;49.844;8.120;2023-07-13T08:14:30;99476.47;;;20.04;60.92
8039;BME280;4062;49.844;8.120;2023-07-13T08:16:31;99497.91;;;20.04;60.81
8039;BME280;4062;49.844;8.120;2023-07-13T08:18:34;99482.69;;;20.04;60.79
8039;BME280;4062;49.844;8.120;2023-07-13T08:20:39;99485.38;;;20.04;60.65
8039;BME280;4062;49.844;8.120;2023-07-13T08:22:40;99485.38;;;20.04;60.58
8039;BME280;4062;49.844;8.120;2023-07-13T08:24:41;99484.50;;;20.04;60.87
8039;BME280;4062;49.844;8.120;2023-07-13T08:26:46;99475.59;;;20.03;60.80
8039;BME280;4062;49.844;8.120;2023-07-13T08:28:47;99481.81;;;20.04;60.60
8039;BME280;4062;49.844;8.120;2023-07-13T08:30:48;99477.41;;;20.03;60.80
8039;BME280;4062;49.844;8.120;2023-07-13T08:32:50;99476.56;;;20.02;60.76
8039;BME280;4062;49.844;8.120;2023-07-13T08:34:51;99471.19;;;20.02;60.60
8039;BME280;4062;49.844;8.120;2023-07-13T08:39:16;99469.38;;;20.03;60.60
8039;BME280;4062;49.844;8.120;2023-07-13T08:41:18;99481.94;;;20.02;60.77
8039;BME280;4062;49.844;8.120;2023-07-13T08:43:27;99473.03;;;20.02;60.77
8039;BME280;4062;49.844;8.120;2023-07-13T08:46:01;99476.56;;;20.02;60.75
8039;BME280;4062;49.844;8.120;2023-07-13T08:50:19;99474.84;;;20.01;61.05
8039;BME280;4062;49.844;8.120;2023-07-13T08:52:36;99481.94;;;20.02;60.72
8039;BME280;4062;49.844;8.120;2023-07-13T08:54:44;99487.28;;;20.02;60.62
8039;BME280;4062;49.844;8.120;2023-07-13T08:56:50;99487.28;;;20.02;60.64
8039;BME280;4062;49.844;8.120;2023-07-13T08:58:57;99476.56;;;20.02;60.68
8039;BME280;4062;49.844;8.120;2023-07-13T09:01:22;99472.94;;;20.03;60.61
8039;BME280;4062;49.844;8.120;2023-07-13T09:03:30;99478.28;;;20.03;60.87
8039;BME280;4062;49.844;8.120;2023-07-13T09:06:08;99471.97;;;20.04;60.90
8039;BME280;4062;49.844;8.120;2023-07-13T09:08:33;99477.34;;;20.04;60.80
8039;BME280;4062;49.844;8.120;2023-07-13T09:10:46;99471.88;;;20.06;60.77
8039;BME280;4062;49.844;8.120;2023-07-13T09:15:34;99475.50;;;20.05;60.62
8039;BME280;4062;49.844;8.120;2023-07-13T09:17:46;99475.44;;;20.06;60.79
8039;BME280;4062;49.844;8.120;2023-07-13T09:20:21;99470.13;;;20.05;60.78
8039;BME280;4062;49.844;8.120;2023-07-13T09:22:25;99471.88;;;20.06;60.61
8039;BME280;4062;49.844;8.120;2023-07-13T09:24:38;99471.88;;;20.06;60.77
8039;BME280;4062;49.844;8.120;2023-07-13T09:26:43;99494.19;;;20.06;60.80
8039;BME280;4062;49.844;8.120;2023-07-13T09:28:51;99477.22;;;20.06;60.66
8039;BME280;4062;49.844;8.120;2023-07-13T09:31:04;99469.19;;;20.06;60.61
8039;BME280;4062;49.844;8.120;2023-07-13T09:33:09;99459.41;;;20.05;60.71
8039;BME280;4062;49.844;8.120;2023-07-13T09:35:17;99471.03;;;20.05;60.80
8039;BME280;4062;49.844;8.120;2023-07-13T09:37:22;99473.78;;;20.04;60.54
8039;BME280;4062;49.844;8.120;2023-07-13T09:39:35;99471.03;;;20.05;60.54
8039;BME280;4062;49.844;8.120;2023-07-13T09:41:40;99467.47;;;20.05;60.73
8039;BME280;4062;49.844;8.120;2023-07-13T09:44:10;99471.97;;;20.04;60.71
8039;BME280;4062;49.844;8.120;2023-07-13T09:46:22;99464.88;;;20.03;60.51
8039;BME280;4062;49.844;8.120;2023-07-13T09:48:23;99465.72;;;20.04;60.80
8039;BME280;4062;49.844;8.120;2023-07-13T09:50:25;99463.94;;;20.04;60.83
8039;BME280;4062;49.844;8.120;2023-07-13T09:52:38;99462.09;;;20.05;60.61
8039;BME280;4062;49.844;8.120;2023-07-13T09:54:45;99477.22;;;20.06;60.74
8039;BME280;4062;49.844;8.120;2023-07-13T09:56:57;99469.19;;;20.06;60.54
8039;BME280;4062;49.844;8.120;2023-07-13T09:59:00;99468.22;;;20.07;60.61
8039;BME280;4062;49.844;8.120;2023-07-13T10:01:03;99466.50;;;20.06;60.61
8039;BME280;4062;49.844;8.120;2023-07-13T10:03:16;99465.66;;;20.05;60.68
8039;BME280;4062;49.844;8.120;2023-07-13T10:05:18;99472.75;;;20.06;60.95
8039;BME280;4062;49.844;8.120;2023-07-13T10:07:23;99467.38;;;20.06;60.90
8039;BME280;4062;49.844;8.120;2023-07-13T10:09:24;99463.81;;;20.06;60.66
8039;BME280;4062;49.844;8.120;2023-07-13T10:11:29;99474.56;;;20.06;60.91
8039;BME280;4062;49.844;8.120;2023-07-13T10:13:37;99463.81;;;20.06;60.59
8039;BME280;4062;49.844;8.120;2023-07-13T10:15:40;99465.53;;;20.07;60.84
8039;BME280;4062;49.844;8.120;2023-07-13T10:17:42;99464.69;;;20.06;60.85
8039;BME280;4062;49.844;8.120;2023-07-13T10:19:48;99462.03;;;20.06;60.72
8039;BME280;4062;49.844;8.120;2023-07-13T10:26:29;99469.06;;;20.07;60.75
8039;BME280;4062;49.844;8.120;2023-07-13T10:28:36;99475.44;;;20.06;60.72
8039;BME280;4062;49.844;8.120;2023-07-13T10:30:42;99470.91;;;20.07;60.77
8039;BME280;4062;49.844;8.120;2023-07-13T10:32:48;99459.22;;;20.08;61.00
8039;BME280;4062;49.844;8.120;2023-07-13T10:34:50;99461.03;;;20.07;60.76
8039;BME280;4062;49.844;8.120;2023-07-13T10:36:53;99462.88;;;20.07;60.69
8039;BME280;4062;49.844;8.120;2023-07-13T10:38:56;99462.88;;;20.07;60.82
8039;BME280;4062;49.844;8.120;2023-07-13T10:41:14;99456.56;;;20.08;60.71
8039;BME280;4062;49.844;8.120;2023-07-13T10:43:27;99454.81;;;20.07;60.60
8039;BME280;4062;49.844;8.120;2023-07-13T10:45:34;99461.03;;;20.07;60.89
8039;BME280;4062;49.844;8.120;2023-07-13T10:47:39;99462.03;;;20.06;60.74
8039;BME280;4062;49.844;8.120;2023-07-13T10:49:42;99464.69;;;20.06;60.79
8039;BME280;4062;49.844;8.120;2023-07-13T10:51:43;99470.06;;;20.06;60.78
8039;BME280;4062;49.844;8.120;2023-07-13T10:53:45;99459.34;;;20.06;60.74
8039;BME280;4062;49.844;8.120;2023-07-13T10:57:52;99467.38;;;20.06;60.92
8039;BME280;4062;49.844;8.120;2023-07-13T11:00:15;99459.34;;;20.06;60.63
8039;BME280;4062;49.844;8.120;2023-07-13T11:02:27;99463.81;;;20.06;61.12
8039;BME280;4062;49.844;8.120;2023-07-13T11:04:39;99452.25;;;20.05;60.80
8039;BME280;4062;49.844;8.120;2023-07-13T11:06:42;99455.78;;;20.06;60.91
8039;BME280;4062;49.844;8.120;2023-07-13T11:10:55;99456.66;;;20.06;60.91
8039;BME280;4062;49.844;8.120;2023-07-13T11:12:57;99462.03;;;20.06;60.66
8039;BME280;4062;49.844;8.120;2023-07-13T11:15:06;99464.69;;;20.06;60.67
8039;BME280;4062;49.844;8.120;2023-07-13T11:19:39;99465.72;;;20.04;61.04
8039;BME280;4062;49.844;8.120;2023-07-13T11:24:16;99461.13;;;20.06;60.60
8039;BME280;4062;49.844;8.120;2023-07-13T11:28:41;99456.72;;;20.05;60.74
8039;BME280;4062;49.844;8.120;2023-07-13T11:35:18;99455.00;;;20.04;60.75
8039;BME280;4062;49.844;8.120;2023-07-13T11:37:23;99451.38;;;20.05;60.65
8039;BME280;4062;49.844;8.120;2023-07-13T11:39:33;99457.69;;;20.04;60.89
8039;BME280;4062;49.844;8.120;2023-07-13T11:41:42;99463.03;;;20.04;61.00
8039;BME280;4062;49.844;8.120;2023-07-13T11:43:45;99471.09;;;20.04;60.92